Time;durP1;ratioP1;P1;durP2;ratioP2;P2;SDS_P1;SDS_P2;PMS_P1;PMS_P2;Temp;Humidity;BMP_temperature;BMP_pressure;BME280_temperature;BME280_humidity;BME280_pressure;Samples;Min_cycle;Max_cycle;Signal;HPM_P1;HPM_P2
2022/09/25 00:01:19;;;;;;;16.27;9.55;;;10.60;99.90;;;;;;5053461;28;20119;-68
2022/09/25 00:03:45;;;;;;;12.73;8.85;;;10.60;99.90;;;;;;5053655;28;20456;-67
2022/09/25 00:06:14;;;;;;;14.25;9.60;;;10.60;99.90;;;;;;5035462;28;20053;-67
2022/09/25 00:08:40;;;;;;;15.70;8.48;;;10.60;99.90;;;;;;5035490;28;20362;-68
2022/09/25 00:11:11;;;;;;;10.95;8.80;;;10.60;99.90;;;;;;5038318;28;20025;-67
2022/09/25 00:13:39;;;;;;;11.35;8.82;;;10.70;99.90;;;;;;5057319;28;20025;-68
2022/09/25 00:16:05;;;;;;;12.63;8.77;;;10.70;99.90;;;;;;5039329;28;20060;-68
2022/09/25 00:21:16;;;;;;;11.45;9.05;;;10.70;99.90;;;;;;5057122;28;20436;-67
2022/09/25 00:23:46;;;;;;;12.95;9.23;;;10.70;99.90;;;;;;5057059;28;20057;-67
2022/09/25 00:26:13;;;;;;;11.52;8.73;;;10.70;99.90;;;;;;5039010;28;20079;-67
2022/09/25 00:28:40;;;;;;;12.20;8.60;;;10.70;99.90;;;;;;5057243;28;20067;-68
2022/09/25 00:31:07;;;;;;;11.98;8.75;;;10.70;99.90;;;;;;5038962;28;20028;-67
2022/09/25 00:33:34;;;;;;;12.55;8.70;;;10.70;99.90;;;;;;5056997;28;20036;-68
2022/09/25 00:36:03;;;;;;;12.57;8.77;;;10.70;99.90;;;;;;5056718;28;20036;-68
2022/09/25 00:38:28;;;;;;;;;;;10.70;99.90;;;;;;5057523;28;20028;-68
2022/09/25 00:40:54;;;;;;;11.45;7.82;;;10.60;99.90;;;;;;5056903;28;19905;-68
2022/09/25 00:43:34;;;;;;;10.10;7.78;;;10.60;99.90;;;;;;5056714;28;20028;-68
2022/09/25 00:46:02;;;;;;;11.73;8.20;;;10.60;99.90;;;;;;5039236;28;20033;-68
2022/09/25 00:48:29;;;;;;;11.93;8.45;;;10.60;99.90;;;;;;5056570;28;20064;-68
2022/09/25 00:50:56;;;;;;;10.93;8.68;;;10.60;99.90;;;;;;5056254;28;20432;-67
2022/09/25 00:53:39;;;;;;;11.50;8.57;;;10.60;99.90;;;;;;5038602;28;20362;-68
2022/09/25 00:56:08;;;;;;;11.15;8.93;;;10.60;99.90;;;;;;5056527;28;20029;-68
2022/09/25 00:58:35;;;;;;;;;;;10.60;99.90;;;;;;5039548;28;20020;-68
2022/09/25 01:01:00;;;;;;;14.90;8.95;;;10.60;99.90;;;;;;5038486;28;19928;-68
2022/09/25 01:03:27;;;;;;;12.27;9.02;;;10.60;99.90;;;;;;5056006;28;20045;-68
2022/09/25 01:05:54;;;;;;;16.83;9.38;;;10.60;99.90;;;;;;5038427;28;20125;-68
2022/09/25 01:08:24;;;;;;;11.45;8.85;;;10.60;99.90;;;;;;5038097;28;20032;-68
2022/09/25 01:10:51;;;;;;;11.38;8.40;;;10.60;99.90;;;;;;5056263;28;20029;-68
2022/09/25 01:13:17;;;;;;;14.30;9.27;;;10.60;99.90;;;;;;5056161;28;20021;-68
2022/09/25 01:16:06;;;;;;;10.20;8.10;;;10.60;99.90;;;;;;5056435;28;20075;-68
2022/09/25 01:19:06;;;;;;;15.15;8.43;;;10.60;99.90;;;;;;5056116;28;20029;-68
2022/09/25 01:21:36;;;;;;;14.02;8.68;;;10.60;99.90;;;;;;4957554;28;20035;-68
2022/09/25 01:24:32;;;;;;;10.18;8.32;;;10.60;99.90;;;;;;5041253;28;20037;-68
2022/09/25 01:27:37;;;;;;;10.35;8.23;;;10.60;99.90;;;;;;5038563;28;20472;-68
2022/09/25 01:30:07;;;;;;;12.45;9.13;;;10.60;99.90;;;;;;5038492;28;20029;-68
2022/09/25 01:32:33;;;;;;;11.18;8.25;;;10.60;99.90;;;;;;5056599;28;20044;-68
2022/09/25 01:35:17;;;;;;;9.75;8.25;;;10.60;99.90;;;;;;5056225;28;20469;-68
2022/09/25 01:38:09;;;;;;;10.88;7.97;;;10.60;99.90;;;;;;5056568;28;20025;-68
2022/09/25 01:40:48;;;;;;;10.00;7.95;;;10.60;99.90;;;;;;5056619;28;20485;-69
2022/09/25 01:43:21;;;;;;;12.23;7.97;;;10.60;99.90;;;;;;5056680;28;20044;-68
2022/09/25 01:46:13;;;;;;;11.77;8.90;;;10.60;99.90;;;;;;5038724;28;20029;-68
2022/09/25 01:48:41;;;;;;;11.15;8.13;;;10.60;99.90;;;;;;5047996;28;20427;-68
2022/09/25 01:51:18;;;;;;;8.38;7.38;;;10.60;99.90;;;;;;5037833;28;20029;-68
2022/09/25 01:53:49;;;;;;;11.45;8.02;;;10.60;99.90;;;;;;5038014;28;20433;-68
2022/09/25 01:56:32;;;;;;;10.75;8.25;;;10.60;99.90;;;;;;5055646;28;20035;-68
2022/09/25 01:59:22;;;;;;;10.02;8.30;;;10.60;99.90;;;;;;5037421;28;20025;-68
2022/09/25 02:01:48;;;;;;;11.25;8.30;;;10.60;99.90;;;;;;4999322;28;20033;-68
2022/09/25 02:04:27;;;;;;;11.13;8.32;;;10.60;99.90;;;;;;5055450;28;20044;-68
2022/09/25 02:06:59;;;;;;;9.27;7.90;;;10.60;99.90;;;;;;5055205;28;20029;-68
2022/09/25 02:09:35;;;;;;;13.82;8.18;;;10.60;99.90;;;;;;5055239;28;20025;-68
2022/09/25 02:12:09;;;;;;;12.80;8.38;;;10.60;99.90;;;;;;5037497;28;20029;-68
2022/09/25 02:14:45;;;;;;;11.82;8.85;;;10.60;99.90;;;;;;5055048;28;20026;-68
2022/09/25 02:20:30;;;;;;;10.90;8.85;;;10.60;99.90;;;;;;5055029;28;20025;-68
2022/09/25 02:22:50;;;;;;;14.68;8.48;;;10.60;99.90;;;;;;5055402;28;20373;-68
2022/09/25 02:25:26;;;;;;;12.35;8.85;;;10.60;99.90;;;;;;5036908;28;20036;-68
2022/09/25 02:27:52;;;;;;;14.15;8.15;;;10.60;99.90;;;;;;5054810;28;20071;-68
2022/09/25 02:30:18;;;;;;;10.80;8.55;;;10.70;99.90;;;;;;5036844;28;20057;-68
2022/09/25 02:32:44;;;;;;;12.25;8.63;;;10.60;99.90;;;;;;5054409;28;20036;-68
2022/09/25 02:35:10;;;;;;;13.52;8.70;;;10.60;99.90;;;;;;5054427;28;20033;-68
2022/09/25 02:37:36;;;;;;;11.27;8.68;;;10.70;99.90;;;;;;5036645;28;20036;-68
2022/09/25 02:40:03;;;;;;;11.30;8.38;;;10.60;99.90;;;;;;5054221;28;20021;-68
2022/09/25 02:42:40;;;;;;;9.70;8.02;;;10.60;99.90;;;;;;5054487;28;20028;-68
2022/09/25 02:45:18;;;;;;;12.15;8.40;;;10.60;99.90;;;;;;5054112;28;20434;-68
2022/09/25 02:47:43;;;;;;;12.68;8.27;;;10.60;99.90;;;;;;5036725;28;20120;-68
2022/09/25 02:50:27;;;;;;;12.63;8.55;;;10.60;99.90;;;;;;5054351;28;20567;-68
2022/09/25 02:53:07;;;;;;;20.50;8.85;;;10.60;99.90;;;;;;5054215;28;20124;-68
2022/09/25 02:55:48;;;;;;;10.80;8.75;;;10.60;99.90;;;;;;5054347;28;20029;-68
2022/09/25 02:58:23;;;;;;;13.15;10.02;;;10.50;99.90;;;;;;5053936;28;20024;-67
2022/09/25 03:00:52;;;;;;;14.98;10.32;;;10.50;99.90;;;;;;5054191;28;20373;-68
2022/09/25 03:03:20;;;;;;;23.65;11.93;;;10.50;99.90;;;;;;5054033;28;20366;-67
2022/09/25 03:05:50;;;;;;;15.75;11.60;;;10.50;99.90;;;;;;5036098;28;20041;-68
2022/09/25 03:08:36;;;;;;;16.77;11.20;;;10.50;99.90;;;;;;5053761;28;20061;-67
2022/09/25 03:11:07;;;;;;;18.95;11.27;;;10.50;99.90;;;;;;5036416;28;20025;-68
2022/09/25 03:13:33;;;;;;;17.67;11.70;;;10.60;99.90;;;;;;5036297;28;20150;-68
2022/09/25 03:16:02;;;;;;;14.48;11.60;;;10.60;99.90;;;;;;5054122;28;20029;-68
2022/09/25 03:18:27;;;;;;;14.48;11.18;;;10.60;99.90;;;;;;5036063;28;20079;-68
2022/09/25 03:20:53;;;;;;;13.98;10.75;;;10.60;99.90;;;;;;5054487;28;20464;-68
2022/09/25 03:23:19;;;;;;;13.85;9.73;;;10.60;99.90;;;;;;5036138;28;20021;-68
2022/09/25 03:25:46;;;;;;;14.82;10.55;;;10.60;99.90;;;;;;5035908;28;20354;-68
2022/09/25 03:28:14;;;;;;;16.20;10.75;;;10.60;99.90;;;;;;5054100;28;20119;-68
2022/09/25 03:30:40;;;;;;;14.40;9.90;;;10.60;99.90;;;;;;5053712;28;20029;-68
2022/09/25 03:33:08;;;;;;;12.35;10.15;;;10.70;99.90;;;;;;5053734;28;20029;-68
2022/09/25 03:35:34;;;;;;;10.90;9.43;;;10.70;99.90;;;;;;5053726;28;20033;-67
2022/09/25 03:37:59;;;;;;;14.23;9.48;;;10.70;99.90;;;;;;5053712;28;20094;-68
2022/09/25 03:40:25;;;;;;;12.88;10.32;;;10.60;99.90;;;;;;5053923;28;20028;-68
2022/09/25 03:42:50;;;;;;;11.55;9.98;;;10.60;99.90;;;;;;5053661;28;20563;-69
2022/09/25 03:45:16;;;;;;;14.57;10.45;;;10.70;99.90;;;;;;5054720;28;20029;-68
2022/09/25 03:47:42;;;;;;;13.93;10.10;;;10.60;99.90;;;;;;5039909;28;20040;-68
2022/09/25 03:50:08;;;;;;;14.98;11.13;;;10.60;99.90;;;;;;5039546;28;20107;-68
2022/09/25 03:52:34;;;;;;;15.57;11.73;;;10.60;99.90;;;;;;5057714;28;20433;-68
2022/09/25 03:54:59;;;;;;;15.82;11.63;;;10.60;99.90;;;;;;5039737;28;20053;-68
2022/09/25 03:57:25;;;;;;;16.17;11.70;;;10.60;99.90;;;;;;5039810;28;20060;-68
2022/09/25 03:59:51;;;;;;;15.20;11.65;;;10.60;99.90;;;;;;5039854;28;20534;-68
2022/09/25 04:02:17;;;;;;;18.20;11.23;;;10.60;99.90;;;;;;5039508;28;20059;-68
2022/09/25 04:04:44;;;;;;;14.45;11.75;;;10.60;99.90;;;;;;5057843;28;20135;-68
2022/09/25 04:07:09;;;;;;;18.92;11.88;;;10.60;99.90;;;;;;5057330;28;20025;-67
2022/09/25 04:09:35;;;;;;;15.40;11.30;;;10.60;99.90;;;;;;5057086;28;20086;-67
2022/09/25 04:12:01;;;;;;;14.18;10.30;;;10.60;99.90;;;;;;5057369;28;20445;-68
2022/09/25 04:14:26;;;;;;;19.15;11.73;;;10.60;99.90;;;;;;5057867;28;20138;-68
2022/09/25 04:16:52;;;;;;;13.40;10.20;;;10.60;99.90;;;;;;5057175;28;20384;-68
2022/09/25 04:19:18;;;;;;;18.38;11.27;;;10.60;99.90;;;;;;5039528;28;20025;-68
2022/09/25 04:21:43;;;;;;;17.58;11.40;;;10.60;99.90;;;;;;5057184;28;20126;-68
2022/09/25 04:26:53;;;;;;;14.95;10.65;;;10.60;99.90;;;;;;5056864;28;20052;-68
2022/09/25 04:29:20;;;;;;;13.52;10.52;;;10.50;99.90;;;;;;5039360;28;20458;-68
2022/09/25 04:33:44;;;;;;;16.38;10.25;;;10.50;99.90;;;;;;5056906;28;20028;-68
2022/09/25 04:34:34;;;;;;;14.07;9.93;;;10.50;99.90;;;;;;5056819;28;20132;-68
2022/09/25 04:37:00;;;;;;;12.38;9.45;;;10.40;99.90;;;;;;5057019;28;20094;-68
2022/09/25 04:39:26;;;;;;;14.23;10.70;;;10.40;99.90;;;;;;5038881;28;20021;-68
2022/09/25 04:41:51;;;;;;;14.98;10.52;;;10.50;99.90;;;;;;5056786;28;20037;-68
2022/09/25 04:44:17;;;;;;;20.52;11.00;;;10.50;99.90;;;;;;5056736;28;20035;-69
2022/09/25 04:46:43;;;;;;;15.02;10.40;;;10.40;99.90;;;;;;5038758;28;20039;-67
2022/09/25 04:49:08;;;;;;;19.17;11.52;;;10.40;99.90;;;;;;5056635;28;20489;-67
2022/09/25 04:51:34;;;;;;;15.65;11.27;;;10.40;99.90;;;;;;5056601;28;20032;-67
2022/09/25 04:53:59;;;;;;;18.42;11.82;;;10.40;99.90;;;;;;5056528;28;20074;-68
2022/09/25 04:56:25;;;;;;;15.27;11.45;;;10.50;99.90;;;;;;5056751;28;20088;-68
2022/09/25 04:58:51;;;;;;;14.60;11.35;;;10.50;99.90;;;;;;5056444;28;20472;-70
2022/09/25 05:01:19;;;;;;;15.00;12.10;;;10.50;99.90;;;;;;5056706;28;20040;-69
2022/09/25 05:03:52;;;;;;;14.60;11.25;;;10.50;99.90;;;;;;5056597;28;20079;-67
2022/09/25 05:06:18;;;;;;;17.38;11.25;;;10.40;99.90;;;;;;5055906;28;20484;-66
2022/09/25 05:08:48;;;;;;;18.40;11.48;;;10.40;99.90;;;;;;5056834;28;20378;-67
2022/09/25 05:11:14;;;;;;;13.93;11.52;;;10.40;99.90;;;;;;5056241;28;20021;-66
2022/09/25 05:13:40;;;;;;;17.17;12.70;;;10.40;99.90;;;;;;5056145;28;20527;-67
2022/09/25 05:16:06;;;;;;;16.83;11.18;;;10.40;99.90;;;;;;5038453;28;20035;-67
2022/09/25 05:18:32;;;;;;;15.85;11.45;;;10.40;99.90;;;;;;5056124;28;20025;-68
2022/09/25 05:21:03;;;;;;;15.75;11.52;;;10.40;99.90;;;;;;5056067;28;20025;-67
2022/09/25 05:23:28;;;;;;;15.77;11.80;;;10.40;99.90;;;;;;5056067;28;20033;-66
2022/09/25 05:25:56;;;;;;;18.15;13.07;;;10.50;99.90;;;;;;5055973;28;20033;-66
2022/09/25 05:28:23;;;;;;;16.50;12.27;;;10.50;99.90;;;;;;5056009;28;20519;-66
2022/09/25 05:30:49;;;;;;;15.65;11.55;;;10.50;99.90;;;;;;5055851;28;20021;-66
2022/09/25 05:33:16;;;;;;;16.50;11.82;;;10.60;99.90;;;;;;5037940;28;20047;-66
2022/09/25 05:35:42;;;;;;;16.10;11.25;;;10.60;99.90;;;;;;5055721;28;20120;-65
2022/09/25 05:38:08;;;;;;;15.13;12.15;;;10.60;99.90;;;;;;5056271;28;20061;-65
2022/09/25 05:40:33;;;;;;;16.13;11.45;;;10.70;99.90;;;;;;5055779;28;20029;-67
2022/09/25 05:43:01;;;;;;;13.27;10.68;;;10.70;99.90;;;;;;5055622;28;20032;-67
2022/09/25 05:45:27;;;;;;;14.75;11.15;;;10.70;99.90;;;;;;5055544;28;20032;-68
2022/09/25 05:48:08;;;;;;;22.05;11.75;;;10.70;99.90;;;;;;5055294;28;20036;-67
2022/09/25 05:50:34;;;;;;;17.98;11.48;;;10.80;99.90;;;;;;5055721;28;20453;-67
2022/09/25 05:53:02;;;;;;;16.75;11.02;;;10.90;99.90;;;;;;5055509;28;20040;-67
2022/09/25 05:55:28;;;;;;;16.65;11.57;;;10.90;99.90;;;;;;5055390;28;20041;-68
2022/09/25 05:58:02;;;;;;;15.80;11.68;;;11.00;99.90;;;;;;5055672;28;20106;-68
2022/09/25 06:00:31;;;;;;;12.18;9.95;;;11.00;99.90;;;;;;5038344;28;20040;-69
2022/09/25 06:02:57;;;;;;;14.23;10.80;;;11.10;99.90;;;;;;5047611;28;20051;-68
2022/09/25 06:05:23;;;;;;;14.30;9.82;;;11.20;99.90;;;;;;5057452;28;20037;-67
2022/09/25 06:07:53;;;;;;;11.98;10.57;;;11.30;99.90;;;;;;5075424;28;20028;-67
2022/09/25 06:10:19;;;;;;;14.95;10.68;;;11.30;99.90;;;;;;5057305;28;20432;-67
2022/09/25 06:12:44;;;;;;;13.25;10.52;;;11.40;99.90;;;;;;5075093;28;20099;-66
2022/09/25 06:15:10;;;;;;;12.98;10.85;;;11.40;99.90;;;;;;5074943;28;20027;-66
2022/09/25 06:17:35;;;;;;;15.82;9.88;;;11.40;99.90;;;;;;5056937;28;20029;-68
2022/09/25 06:20:01;;;;;;;15.93;9.88;;;11.50;99.90;;;;;;5074894;28;20028;-68
2022/09/25 06:22:27;;;;;;;12.45;9.73;;;11.60;99.90;;;;;;5074775;28;20036;-67
2022/09/25 06:24:52;;;;;;;13.85;10.82;;;11.60;99.90;;;;;;5056916;28;20075;-68
2022/09/25 06:27:18;;;;;;;13.13;9.48;;;11.70;99.90;;;;;;5074591;28;20041;-69
2022/09/25 06:29:43;;;;;;;11.52;9.63;;;11.80;99.90;;;;;;5074858;28;20100;-68
2022/09/25 06:32:09;;;;;;;16.13;10.57;;;11.90;99.90;;;;;;5074595;28;20521;-68
2022/09/25 06:34:35;;;;;;;15.38;10.85;;;11.90;99.90;;;;;;5074197;28;20029;-68
2022/09/25 06:37:00;;;;;;;16.05;13.02;;;12.00;99.90;;;;;;5074745;28;20103;-68
2022/09/25 06:39:26;;;;;;;12.57;10.27;;;12.00;99.90;;;;;;5074455;28;20103;-69
2022/09/25 06:41:52;;;;;;;15.88;11.50;;;12.00;99.90;;;;;;5074391;28;20064;-69
2022/09/25 06:44:19;;;;;;;15.13;11.02;;;12.10;99.90;;;;;;5074060;28;20031;-65
2022/09/25 06:46:53;;;;;;;14.48;10.80;;;12.20;99.90;;;;;;5074291;28;20115;-62
2022/09/25 06:49:19;;;;;;;15.93;11.07;;;12.30;99.90;;;;;;5056330;28;20526;-62
2022/09/25 06:51:45;;;;;;;17.55;11.65;;;12.40;99.90;;;;;;5073864;28;20021;-63
2022/09/25 06:54:11;;;;;;;14.35;11.10;;;12.50;99.90;;;;;;5074390;28;20092;-63
2022/09/25 06:56:36;;;;;;;13.95;11.13;;;12.50;99.90;;;;;;5056460;28;20039;-62
2022/09/25 06:59:03;;;;;;;12.85;11.02;;;12.50;99.90;;;;;;5074173;28;20111;-62
2022/09/25 07:01:29;;;;;;;15.63;13.13;;;12.60;99.90;;;;;;5074294;28;20032;-63
2022/09/25 07:03:54;;;;;;;17.45;11.20;;;12.60;99.90;;;;;;5057746;28;20064;-62
2022/09/25 07:06:23;;;;;;;16.23;11.18;;;12.70;99.90;;;;;;5053759;28;20029;-63
2022/09/25 07:08:49;;;;;;;14.77;11.53;;;12.80;99.90;;;;;;5054054;28;20064;-63
2022/09/25 07:11:21;;;;;;;14.27;11.38;;;12.80;99.90;;;;;;5036520;28;20358;-65
2022/09/25 07:13:48;;;;;;;17.30;11.32;;;12.90;99.90;;;;;;5054129;28;20029;-64
2022/09/25 07:16:16;;;;;;;14.38;11.40;;;13.00;99.90;;;;;;5053921;28;20021;-65
2022/09/25 07:18:43;;;;;;;13.95;11.25;;;13.10;99.90;;;;;;5065587;28;20491;-65
2022/09/25 07:21:12;;;;;;;15.75;10.90;;;13.20;99.90;;;;;;5072912;28;20032;-64
2022/09/25 07:23:37;;;;;;;;;;;13.40;99.90;;;;;;5074247;28;20032;-64
2022/09/25 07:26:20;;;;;;;13.73;10.50;;;13.40;99.90;;;;;;5073460;28;19908;-65
2022/09/25 07:28:47;;;;;;;13.48;11.02;;;13.40;99.90;;;;;;5056067;28;20029;-65
2022/09/25 07:31:18;;;;;;;13.80;10.32;;;13.50;99.90;;;;;;5074143;28;20052;-64
2022/09/25 07:33:45;;;;;;;12.73;10.00;;;13.60;99.90;;;;;;5073734;28;20090;-64
2022/09/25 07:36:11;;;;;;;13.77;10.68;;;13.60;99.90;;;;;;5073825;28;20029;-65
2022/09/25 07:38:37;;;;;;;14.35;10.65;;;13.70;99.90;;;;;;5073653;28;20501;-65
2022/09/25 07:41:05;;;;;;;15.80;10.20;;;13.80;99.90;;;;;;5073466;28;20024;-65
2022/09/25 07:43:31;;;;;;;15.65;11.55;;;14.00;99.90;;;;;;5073615;28;20112;-65
2022/09/25 07:45:57;;;;;;;13.05;10.15;;;14.10;99.90;;;;;;5073487;28;20055;-65
2022/09/25 07:48:23;;;;;;;14.35;10.25;;;14.10;99.90;;;;;;5073557;28;20035;-65
2022/09/25 07:50:49;;;;;;;11.82;10.50;;;14.20;99.90;;;;;;5073784;28;20025;-65
2022/09/25 07:53:17;;;;;;;13.52;9.98;;;14.30;99.90;;;;;;5055612;28;20512;-65
2022/09/25 07:55:43;;;;;;;15.07;10.68;;;14.30;99.90;;;;;;5073344;28;20403;-63
2022/09/25 07:58:10;;;;;;;14.77;10.63;;;14.30;99.90;;;;;;5073794;28;20372;-60
2022/09/25 08:00:36;;;;;;;11.27;9.65;;;14.40;99.90;;;;;;5073540;28;20033;-60
2022/09/25 08:03:02;;;;;;;13.38;11.20;;;14.40;99.90;;;;;;5073426;28;20052;-60
2022/09/25 08:05:27;;;;;;;11.43;10.23;;;14.40;99.90;;;;;;5073070;28;20040;-60
2022/09/25 08:07:53;;;;;;;14.38;10.05;;;14.40;99.90;;;;;;5073216;28;20373;-60
2022/09/25 08:10:20;;;;;;;13.75;10.38;;;14.50;99.90;;;;;;5073066;28;20040;-61
2022/09/25 08:12:46;;;;;;;26.45;14.02;;;14.50;99.90;;;;;;5073355;28;20031;-60
2022/09/25 08:15:15;;;;;;;13.98;11.00;;;14.70;99.90;;;;;;5073491;28;20024;-60
2022/09/25 08:17:41;;;;;;;14.52;9.68;;;14.70;99.90;;;;;;5073785;28;20025;-70
2022/09/25 08:20:07;;;;;;;11.38;9.07;;;14.80;99.90;;;;;;5073509;28;20024;-70
2022/09/25 08:22:33;;;;;;;15.15;10.93;;;14.90;99.90;;;;;;5073608;28;20035;-70
2022/09/25 08:25:02;;;;;;;14.55;9.77;;;15.00;99.90;;;;;;5073257;28;20029;-71
2022/09/25 08:27:29;;;;;;;9.82;8.35;;;15.10;99.90;;;;;;5055178;28;20050;-70
2022/09/25 08:29:54;;;;;;;11.07;8.15;;;15.20;99.90;;;;;;5073184;28;20033;-70
2022/09/25 08:32:20;;;;;;;12.15;9.68;;;15.40;99.90;;;;;;5057997;28;20032;-71
2022/09/25 08:34:46;;;;;;;13.65;9.27;;;15.50;99.90;;;;;;5076743;28;20068;-72
2022/09/25 08:37:11;;;;;;;10.65;8.32;;;15.40;99.90;;;;;;5076755;28;20051;-71
2022/09/25 08:39:37;;;;;;;10.45;8.93;;;15.40;99.90;;;;;;5076669;28;20039;-70
2022/09/25 08:42:04;;;;;;;10.52;8.60;;;15.40;99.90;;;;;;5058621;28;20038;-70
2022/09/25 08:49:00;;;;;;;9.95;8.60;;;15.40;99.90;;;;;;5076666;28;20028;-70
2022/09/25 08:50:24;;;;;;;9.63;8.05;;;15.50;99.90;;;;;;5076457;28;20039;-71
2022/09/25 08:53:06;;;;;;;10.38;8.35;;;15.60;99.90;;;;;;5076546;28;20395;-70
2022/09/25 08:58:27;;;;;;;10.68;8.05;;;15.60;99.90;;;;;;5076580;28;20391;-70
2022/09/25 09:00:57;;;;;;;13.18;8.98;;;15.60;99.90;;;;;;5076566;28;20024;-70
2022/09/25 09:03:25;;;;;;;9.70;8.38;;;15.50;99.90;;;;;;5076485;28;20055;-70
2022/09/25 09:06:01;;;;;;;11.90;8.27;;;15.40;99.90;;;;;;5058266;28;20051;-70
2022/09/25 09:08:28;;;;;;;12.73;8.88;;;15.30;99.90;;;;;;5076349;28;20115;-70
2022/09/25 09:10:58;;;;;;;10.82;8.57;;;15.30;99.90;;;;;;5058218;28;20024;-70
2022/09/25 09:13:33;;;;;;;13.48;9.07;;;15.40;99.90;;;;;;5076377;28;20029;-71
2022/09/25 09:16:14;;;;;;;13.20;9.27;;;15.40;99.90;;;;;;5076400;28;20034;-70
2022/09/25 09:18:41;;;;;;;11.20;8.70;;;15.40;99.90;;;;;;5058119;28;20119;-71
2022/09/25 09:21:11;;;;;;;13.05;8.80;;;15.50;99.90;;;;;;5076036;28;20060;-70
2022/09/25 09:24:12;;;;;;;11.18;8.50;;;15.40;99.90;;;;;;5058002;28;20024;-70
2022/09/25 09:27:11;;;;;;;9.27;8.27;;;15.40;99.90;;;;;;5022460;28;20041;-70
2022/09/25 09:29:39;;;;;;;;;;;15.50;99.90;;;;;;5076526;28;20364;-70
2022/09/25 09:32:29;;;;;;;10.48;9.20;;;15.50;99.90;;;;;;5075654;28;19904;-70
2022/09/25 09:35:05;;;;;;;14.07;10.48;;;15.60;99.90;;;;;;5075712;28;20108;-70
2022/09/25 09:37:40;;;;;;;11.73;8.70;;;15.50;99.90;;;;;;5075676;28;20074;-70
2022/09/25 09:40:26;;;;;;;14.20;10.68;;;15.40;99.90;;;;;;5076117;28;20020;-70
2022/09/25 09:42:55;;;;;;;12.27;9.75;;;15.30;99.90;;;;;;5074760;28;20126;-70
2022/09/25 09:45:24;;;;;;;13.10;9.85;;;15.30;99.90;;;;;;5075555;28;20021;-70
2022/09/25 09:48:02;;;;;;;;;;;15.30;99.90;;;;;;5076009;28;20033;-70
2022/09/25 09:50:43;;;;;;;14.40;10.57;;;15.30;99.90;;;;;;5075772;28;19915;-70
2022/09/25 09:53:26;;;;;;;13.15;10.55;;;15.30;99.90;;;;;;5075893;28;20247;-71
2022/09/25 09:56:00;;;;;;;15.77;11.13;;;15.30;99.90;;;;;;5057688;28;20078;-70
2022/09/25 09:58:40;;;;;;;12.18;10.35;;;15.20;99.90;;;;;;5075448;28;20114;-70
2022/09/25 10:01:07;;;;;;;21.80;11.68;;;15.20;99.90;;;;;;5075235;28;20028;-70
2022/09/25 10:03:37;;;;;;;16.40;10.80;;;15.20;99.90;;;;;;5075350;28;20127;-70
2022/09/25 10:06:08;;;;;;;15.13;10.57;;;15.20;99.90;;;;;;5057179;28;20028;-71
2022/09/25 10:08:34;;;;;;;12.90;11.23;;;15.20;99.90;;;;;;5075352;28;20048;-71
2022/09/25 10:11:23;;;;;;;15.43;11.10;;;15.20;99.90;;;;;;5075012;28;20024;-70
2022/09/25 10:13:49;;;;;;;;;;;15.10;99.90;;;;;;5074207;28;20163;-70
2022/09/25 10:16:22;;;;;;;14.77;10.25;;;15.10;99.90;;;;;;5057041;28;20272;-70
2022/09/25 10:19:10;;;;;;;14.18;10.80;;;15.10;99.90;;;;;;5074613;28;20032;-70
2022/09/25 10:22:04;;;;;;;15.02;11.02;;;15.10;99.90;;;;;;5057120;28;20461;-70
2022/09/25 10:24:52;;;;;;;11.80;10.25;;;15.10;99.90;;;;;;5056774;28;20074;-70
2022/09/25 10:27:53;;;;;;;12.52;9.50;;;15.00;99.90;;;;;;5074516;28;20495;-69
2022/09/25 10:30:20;;;;;;;12.13;10.18;;;15.00;99.90;;;;;;5019217;28;20052;-70
2022/09/25 10:32:51;;;;;;;13.50;9.52;;;15.00;99.90;;;;;;5056744;28;20028;-69
2022/09/25 10:35:23;;;;;;;11.73;10.52;;;14.90;99.90;;;;;;5074446;28;20487;-70
2022/09/25 10:37:55;;;;;;;12.85;10.63;;;14.80;99.90;;;;;;5066729;28;20519;-69
2022/09/25 10:40:25;;;;;;;13.77;10.23;;;14.70;99.90;;;;;;5055790;28;20048;-70
2022/09/25 10:43:19;;;;;;;11.88;10.15;;;14.70;99.90;;;;;;5056340;28;20025;-70
2022/09/25 10:45:47;;;;;;;14.68;10.95;;;14.60;99.90;;;;;;5071851;28;20091;-69
2022/09/25 10:51:20;;;;;;;13.27;10.30;;;14.70;99.90;;;;;;5075147;28;20035;-69
2022/09/25 10:54:15;;;;;;;13.98;9.80;;;14.80;99.90;;;;;;5074295;28;20033;-68
2022/09/25 10:56:41;;;;;;;13.77;9.85;;;14.90;99.90;;;;;;5059328;28;20108;-69
2022/09/25 10:59:20;;;;;;;13.38;9.52;;;15.00;99.90;;;;;;5036326;28;20530;-69
2022/09/25 11:01:48;;;;;;;14.70;9.77;;;15.00;99.90;;;;;;5054247;28;20025;-70
2022/09/25 11:04:19;;;;;;;12.07;9.02;;;14.90;99.90;;;;;;5053731;28;20048;-68
2022/09/25 11:06:53;;;;;;;15.60;9.02;;;14.90;99.90;;;;;;5054142;28;20087;-68
2022/09/25 11:09:21;;;;;;;12.40;9.52;;;14.90;99.90;;;;;;5054374;28;20457;-68
2022/09/25 11:11:49;;;;;;;13.10;9.68;;;14.90;99.90;;;;;;5054081;28;20025;-69
2022/09/25 11:14:31;;;;;;;14.35;10.48;;;14.90;99.90;;;;;;5035988;28;20067;-69
2022/09/25 11:16:58;;;;;;;14.23;10.27;;;15.00;99.90;;;;;;5053970;28;20108;-70
2022/09/25 11:19:24;;;;;;;14.50;9.57;;;15.00;99.90;;;;;;5053906;28;20028;-69
2022/09/25 11:22:06;;;;;;;14.20;10.30;;;15.10;99.90;;;;;;5053805;28;20025;-69
2022/09/25 11:24:47;;;;;;;10.95;9.20;;;15.20;99.90;;;;;;5053862;28;20055;-72
2022/09/25 11:27:22;;;;;;;11.95;9.40;;;15.40;99.90;;;;;;5035596;28;20024;-70
2022/09/25 11:29:57;;;;;;;14.10;9.65;;;15.40;99.90;;;;;;5053692;28;20021;-69
2022/09/25 11:32:23;;;;;;;15.23;9.90;;;15.50;99.90;;;;;;5053816;28;20523;-70
2022/09/25 11:35:38;;;;;;;11.05;9.50;;;15.40;99.90;;;;;;5053663;28;20033;-70
2022/09/25 11:38:12;;;;;;;11.15;9.75;;;15.40;99.90;;;;;;5032377;28;20037;-59
2022/09/25 11:41:21;;;;;;;12.95;10.27;;;15.40;99.90;;;;;;5055916;28;20025;-59
2022/09/25 11:43:50;;;;;;;15.93;10.60;;;15.30;99.90;;;;;;4972601;28;20041;-59
2022/09/25 11:46:26;;;;;;;34.72;21.23;;;15.30;99.90;;;;;;5042903;28;20037;-59
2022/09/25 11:48:55;;;;;;;13.57;10.27;;;15.30;99.90;;;;;;5054021;28;20048;-66
2022/09/25 11:51:34;;;;;;;13.43;10.38;;;15.40;99.90;;;;;;5053991;28;20028;-69
2022/09/25 11:54:12;;;;;;;12.02;9.75;;;15.40;99.90;;;;;;5036515;28;20348;-71
2022/09/25 11:56:56;;;;;;;14.27;9.57;;;15.60;99.90;;;;;;5053549;28;20120;-71
2022/09/25 11:59:37;;;;;;;12.40;9.18;;;15.70;99.90;;;;;;5053400;28;20068;-71
2022/09/25 12:02:30;;;;;;;12.18;9.38;;;15.80;99.90;;;;;;5053245;28;20029;-70
2022/09/25 12:05:23;;;;;;;11.90;9.60;;;15.80;99.90;;;;;;5053445;28;20104;-70
2022/09/25 12:08:26;;;;;;;13.73;9.45;;;15.80;99.90;;;;;;5039451;28;20033;-70
2022/09/25 12:11:19;;;;;;;9.60;8.25;;;15.80;99.90;;;;;;5039464;28;20025;-70
2022/09/25 12:14:12;;;;;;;12.02;10.73;;;15.90;99.90;;;;;;5057384;28;20021;-70
2022/09/25 12:16:42;;;;;;;15.40;11.13;;;16.00;99.90;;;;;;5057569;28;20032;-70
2022/09/25 12:19:22;;;;;;;14.65;9.93;;;16.10;99.90;;;;;;5039526;28;20377;-69
2022/09/25 12:22:16;;;;;;;11.35;10.15;;;16.00;99.90;;;;;;5039303;28;20021;-69
2022/09/25 12:25:01;;;;;;;11.63;9.27;;;16.00;99.90;;;;;;5030629;28;20041;-70
2022/09/25 12:27:50;;;;;;;12.25;10.18;;;16.10;99.90;;;;;;5056967;28;20061;-69
2022/09/25 12:30:22;;;;;;;12.73;9.70;;;16.30;99.90;;;;;;5056975;28;20028;-70
2022/09/25 12:33:31;;;;;;;12.38;9.80;;;16.50;99.90;;;;;;5056831;28;20162;-69
2022/09/25 12:36:15;;;;;;;11.40;9.60;;;16.40;99.90;;;;;;5039403;28;20029;-70
2022/09/25 12:38:49;;;;;;;14.60;9.05;;;16.60;99.90;;;;;;5038797;28;20457;-70
2022/09/25 12:41:28;;;;;;;12.05;9.70;;;16.70;99.90;;;;;;5056952;28;20028;-70
2022/09/25 12:44:03;;;;;;;11.93;9.25;;;16.90;99.90;;;;;;5038397;28;20021;-70
2022/09/25 12:47:01;;;;;;;12.18;9.30;;;17.10;99.90;;;;;;5038719;28;20480;-70
2022/09/25 12:49:43;;;;;;;13.43;10.23;;;17.10;99.90;;;;;;5037972;28;20400;-69
2022/09/25 12:52:25;;;;;;;11.88;9.73;;;16.70;99.90;;;;;;5056413;28;20028;-70
2022/09/25 12:54:51;;;;;;;14.68;10.18;;;16.60;99.90;;;;;;5038623;28;20025;-70
2022/09/25 12:57:31;;;;;;;13.95;9.52;;;16.80;99.90;;;;;;5056627;28;20113;-70
2022/09/25 13:00:24;;;;;;;11.05;8.88;;;17.10;99.90;;;;;;5056797;28;20139;-70
2022/09/25 13:03:02;;;;;;;18.73;11.35;;;17.30;99.90;;;;;;5038065;28;20489;-70
2022/09/25 13:05:39;;;;;;;12.33;11.03;;;17.30;99.90;;;;;;5056054;28;20067;-70
2022/09/25 13:08:23;;;;;;;12.75;10.45;;;17.30;99.90;;;;;;5038606;28;20025;-70
2022/09/25 13:10:52;;;;;;;10.77;9.55;;;17.50;99.90;;;;;;5056043;28;20025;-70
2022/09/25 13:13:19;;;;;;;;;;;19.00;99.90;;;;;;5056614;28;20017;-70
2022/09/25 13:15:54;;;;;;;12.20;9.45;;;19.80;99.90;;;;;;5056421;28;19911;-70